Time;durP1;ratioP1;P1;durP2;ratioP2;P2;SDS_P1;SDS_P2;PMS_P1;PMS_P2;Temp;Humidity;BMP_temperature;BMP_pressure;BME280_temperature;BME280_humidity;BME280_pressure;Samples;Min_cycle;Max_cycle;Signal;HPM_P1;HPM_P2
2021/09/14 00:01:03;;;;;;;0.95;0.50;;;6.70;91.60;;;;;;5011219;28;20101;-71
2021/09/14 00:03:29;;;;;;;0.88;0.57;;;6.70;91.60;;;;;;5010973;28;20026;-71
2021/09/14 00:05:55;;;;;;;0.88;0.45;;;6.70;91.40;;;;;;5009797;28;20022;-71
2021/09/14 00:08:21;;;;;;;1.70;0.60;;;6.70;91.50;;;;;;5010820;28;20057;-70
2021/09/14 00:10:46;;;;;;;0.40;0.40;;;6.70;91.50;;;;;;5010952;28;20025;-70
2021/09/14 00:13:12;;;;;;;0.57;0.50;;;6.70;91.40;;;;;;5009673;28;20567;-71
2021/09/14 00:15:38;;;;;;;3.45;0.60;;;6.70;91.30;;;;;;5010809;28;20399;-71
2021/09/14 00:18:05;;;;;;;0.77;0.60;;;6.70;91.70;;;;;;5010892;28;20087;-68
2021/09/14 00:20:31;;;;;;;2.17;0.55;;;6.70;91.20;;;;;;5010601;28;20129;-69
2021/09/14 00:22:56;;;;;;;3.95;0.50;;;6.70;91.20;;;;;;5010811;28;20067;-68
2021/09/14 00:25:22;;;;;;;0.85;0.50;;;6.70;91.20;;;;;;5010511;28;20030;-69
2021/09/14 00:27:48;;;;;;;0.82;0.43;;;6.80;91.30;;;;;;5010762;28;20026;-68
2021/09/14 00:30:14;;;;;;;0.60;0.30;;;6.80;91.40;;;;;;5010645;28;20038;-68
2021/09/14 00:32:40;;;;;;;2.40;0.65;;;6.80;91.20;;;;;;5010735;28;20030;-68
2021/09/14 00:35:07;;;;;;;1.45;0.70;;;6.80;91.10;;;;;;5010580;28;20022;-68
2021/09/14 00:37:32;;;;;;;1.60;0.60;;;6.80;91.20;;;;;;5010508;28;20373;-68
2021/09/14 00:39:58;;;;;;;0.52;0.40;;;6.80;91.10;;;;;;5010431;28;20030;-68
2021/09/14 00:42:24;;;;;;;0.35;0.35;;;6.80;91.20;;;;;;5010456;28;20033;-68
2021/09/14 00:44:50;;;;;;;1.30;0.50;;;6.80;91.20;;;;;;5009225;28;20025;-68
2021/09/14 00:47:15;;;;;;;2.75;0.50;;;6.80;91.10;;;;;;5010708;28;20026;-68
2021/09/14 00:49:41;;;;;;;2.28;0.50;;;6.80;91.20;;;;;;5010160;28;20065;-68
2021/09/14 00:52:11;;;;;;;0.50;0.50;;;6.80;91.30;;;;;;5010375;28;20022;-68
2021/09/14 00:54:40;;;;;;;1.95;0.50;;;6.80;91.30;;;;;;5010074;28;20417;-68
2021/09/14 00:57:06;;;;;;;0.40;0.40;;;6.80;91.50;;;;;;5010399;28;20020;-68
2021/09/14 00:59:32;;;;;;;3.13;0.60;;;6.80;91.60;;;;;;5010164;28;20038;-68
2021/09/14 01:01:59;;;;;;;1.52;0.57;;;6.80;91.70;;;;;;5010509;28;20051;-68
2021/09/14 01:04:25;;;;;;;1.02;0.52;;;6.70;92.00;;;;;;5010076;28;20064;-68
2021/09/14 01:06:51;;;;;;;0.70;0.40;;;6.70;92.30;;;;;;5010259;28;20034;-68
2021/09/14 01:09:16;;;;;;;1.92;0.45;;;6.70;92.70;;;;;;5010383;28;20064;-68
2021/09/14 01:11:43;;;;;;;0.55;0.50;;;6.60;92.90;;;;;;5010248;28;20452;-68
2021/09/14 01:14:10;;;;;;;1.02;0.50;;;6.60;93.10;;;;;;5010319;28;20059;-68
2021/09/14 01:45:59;;;;;;;0.40;0.40;;;6.20;95.60;;;;;;5109933;28;20506;-69
2021/09/14 01:48:25;;;;;;;1.65;0.50;;;6.10;95.30;;;;;;5109972;28;20024;-69
2021/09/14 01:50:51;;;;;;;2.28;0.85;;;6.10;95.30;;;;;;5038327;28;20128;-69
2021/09/14 01:53:16;;;;;;;0.40;0.40;;;6.10;95.50;;;;;;5009395;28;20048;-69
2021/09/14 01:55:43;;;;;;;1.98;0.50;;;6.10;95.50;;;;;;5007428;28;20050;-69
2021/09/14 01:58:10;;;;;;;1.38;0.63;;;6.00;95.50;;;;;;5009333;28;20061;-69
2021/09/14 02:00:39;;;;;;;0.77;0.50;;;6.10;95.70;;;;;;5009263;28;20113;-69
2021/09/14 02:03:18;;;;;;;0.95;0.50;;;6.00;95.80;;;;;;5009267;28;20030;-69
2021/09/14 02:33:49;;;;;;;3.17;0.50;;;5.90;96.70;;;;;;5009368;28;20377;-68
2021/09/14 03:00:09;;;;;;;0.40;0.40;;;5.90;97.90;;;;;;5008617;28;20037;-69
2021/09/14 03:02:35;;;;;;;1.00;0.40;;;5.90;98.00;;;;;;5008762;28;20487;-69
2021/09/14 03:05:02;;;;;;;10.45;0.77;;;5.90;98.10;;;;;;5008799;28;20052;-70
2021/09/14 03:07:28;;;;;;;1.85;0.60;;;5.90;98.30;;;;;;5008884;28;20034;-69
2021/09/14 03:09:54;;;;;;;1.20;0.57;;;6.00;98.40;;;;;;5011837;28;20677;-69
2021/09/14 03:12:19;;;;;;;1.63;0.60;;;6.00;98.40;;;;;;5011791;28;20034;-69
2021/09/14 03:14:47;;;;;;;0.60;0.43;;;6.00;98.50;;;;;;5011873;28;20030;-69
2021/09/14 03:17:12;;;;;;;0.50;0.40;;;6.00;98.60;;;;;;5011905;28;20495;-69
2021/09/14 03:19:38;;;;;;;1.88;0.60;;;6.00;98.70;;;;;;5011469;28;20045;-69
2021/09/14 03:22:04;;;;;;;0.60;0.57;;;6.00;98.80;;;;;;5012089;28;20022;-69
2021/09/14 03:24:29;;;;;;;1.17;0.60;;;6.00;98.90;;;;;;5011506;28;20542;-69
2021/09/14 03:26:57;;;;;;;1.00;0.60;;;6.00;98.90;;;;;;5011928;28;20030;-68
2021/09/14 03:29:23;;;;;;;1.23;0.60;;;6.00;98.80;;;;;;5011833;28;20030;-68
2021/09/14 03:31:48;;;;;;;3.55;0.65;;;6.00;98.90;;;;;;5011468;28;20443;-68
2021/09/14 03:34:14;;;;;;;3.58;0.75;;;6.00;99.10;;;;;;5011620;28;20033;-68
2021/09/14 03:36:40;;;;;;;1.65;0.60;;;6.00;99.20;;;;;;5011555;28;20022;-68
2021/09/14 03:39:06;;;;;;;2.72;0.63;;;6.00;99.20;;;;;;5010141;28;20073;-68
2021/09/14 03:41:31;;;;;;;1.67;0.50;;;6.00;99.40;;;;;;5011429;28;20067;-68
2021/09/14 03:43:57;;;;;;;1.13;0.60;;;6.00;99.50;;;;;;5011347;28;20029;-68
2021/09/14 03:46:23;;;;;;;5.15;0.70;;;6.00;99.70;;;;;;5011683;28;20037;-68
2021/09/14 03:48:48;;;;;;;2.28;0.70;;;6.00;99.80;;;;;;5011220;28;20541;-68
2021/09/14 03:51:14;;;;;;;4.95;0.60;;;5.90;99.90;;;;;;5011538;28;20082;-68
2021/09/14 03:53:40;;;;;;;1.67;0.60;;;6.00;99.90;;;;;;5011057;28;20458;-68
2021/09/14 03:56:05;;;;;;;0.80;0.47;;;6.00;99.90;;;;;;5011228;28;20033;-69
2021/09/14 03:58:31;;;;;;;0.90;0.60;;;5.90;99.90;;;;;;5011359;28;20033;-69
2021/09/14 04:00:57;;;;;;;1.50;0.60;;;5.90;99.90;;;;;;5011212;28;20026;-69
2021/09/14 04:03:26;;;;;;;0.98;0.60;;;5.90;99.90;;;;;;5011418;28;20026;-69
2021/09/14 04:11:11;;;;;;;0.90;0.52;;;5.90;99.90;;;;;;5010992;28;20033;-68
2021/09/14 04:13:37;;;;;;;2.17;0.80;;;5.90;99.90;;;;;;5010957;28;20026;-69
2021/09/14 04:16:02;;;;;;;0.55;0.50;;;5.90;99.90;;;;;;5010786;28;20443;-68
2021/09/14 04:18:28;;;;;;;5.30;0.70;;;5.80;99.90;;;;;;5010653;28;20109;-69
2021/09/14 04:20:54;;;;;;;0.90;0.52;;;5.80;99.90;;;;;;5011053;28;20027;-69
2021/09/14 04:23:19;;;;;;;0.70;0.60;;;5.80;99.90;;;;;;5011025;28;20074;-68
2021/09/14 04:25:45;;;;;;;2.08;0.50;;;5.80;99.90;;;;;;5010573;28;20021;-68
2021/09/14 04:28:11;;;;;;;1.08;0.70;;;5.80;99.90;;;;;;5010724;28;20478;-68
2021/09/14 04:30:37;;;;;;;7.47;1.00;;;5.80;99.90;;;;;;5010481;28;20101;-68
2021/09/14 04:33:03;;;;;;;2.42;0.60;;;5.80;99.90;;;;;;5010886;28;20106;-66
2021/09/14 04:35:29;;;;;;;4.90;0.90;;;5.80;99.90;;;;;;5010373;28;20394;-66
2021/09/14 04:37:54;;;;;;;0.85;0.50;;;5.80;99.90;;;;;;5010358;28;20076;-68
2021/09/14 04:40:20;;;;;;;1.48;0.43;;;6.10;99.90;;;;;;5010706;28;20129;-67
2021/09/14 04:42:46;;;;;;;5.43;0.85;;;7.40;99.90;;;;;;5010238;28;20022;-66
2021/09/14 04:45:12;;;;;;;6.78;1.17;;;7.90;99.90;;;;;;5010402;28;20033;-67
2021/09/14 04:47:37;;;;;;;1.55;0.60;;;7.50;99.90;;;;;;5010005;28;20418;-67
2021/09/14 04:50:04;;;;;;;2.13;0.60;;;7.20;99.90;;;;;;5010424;28;20030;-67
2021/09/14 04:52:31;;;;;;;2.72;0.50;;;6.90;99.90;;;;;;5010377;28;20021;-66
2021/09/14 04:54:57;;;;;;;1.20;0.70;;;6.90;99.90;;;;;;5009937;28;20057;-65
2021/09/14 04:57:22;;;;;;;3.70;0.73;;;7.00;99.90;;;;;;5010100;28;20026;-66
2021/09/14 04:59:49;;;;;;;2.95;0.60;;;7.10;99.90;;;;;;5009755;28;20029;-66
2021/09/14 05:02:14;;;;;;;2.67;0.50;;;6.90;99.90;;;;;;5010335;28;20057;-66
2021/09/14 05:04:40;;;;;;;4.07;0.82;;;6.70;99.90;;;;;;5009955;28;20118;-66
2021/09/14 05:07:06;;;;;;;0.88;0.47;;;6.60;99.90;;;;;;5010044;28;20022;-65
2021/09/14 05:09:31;;;;;;;1.42;0.50;;;6.50;99.90;;;;;;5009988;28;20029;-65
2021/09/14 05:11:57;;;;;;;5.25;0.60;;;6.40;99.90;;;;;;5010072;28;20109;-65
2021/09/14 05:14:23;;;;;;;2.25;0.50;;;6.40;99.90;;;;;;5009937;28;20018;-65
2021/09/14 05:16:49;;;;;;;5.00;0.60;;;6.40;99.90;;;;;;5009801;28;20026;-65
2021/09/14 05:19:19;;;;;;;6.15;0.80;;;6.40;99.90;;;;;;5009791;28;20033;-65
2021/09/14 05:21:48;;;;;;;4.53;0.70;;;6.40;99.90;;;;;;5009652;28;20061;-65
2021/09/14 05:24:14;;;;;;;7.80;0.80;;;6.40;99.90;;;;;;5009845;28;20034;-65
2021/09/14 05:26:41;;;;;;;4.45;0.70;;;6.40;99.90;;;;;;5009580;28;20534;-65
2021/09/14 05:29:07;;;;;;;4.47;0.68;;;6.40;99.90;;;;;;5009897;28;20555;-65
2021/09/14 05:31:34;;;;;;;1.80;0.60;;;6.40;99.90;;;;;;5008749;28;20064;-65
2021/09/14 05:34:01;;;;;;;1.20;0.60;;;6.50;99.90;;;;;;5009975;28;20037;-65
2021/09/14 05:36:26;;;;;;;7.20;0.73;;;6.50;99.90;;;;;;5009877;28;20057;-65
2021/09/14 05:38:55;;;;;;;8.10;0.75;;;6.50;99.90;;;;;;5009649;28;20481;-65
2021/09/14 05:41:20;;;;;;;2.75;0.70;;;6.60;99.90;;;;;;5009443;28;20022;-65
2021/09/14 05:43:46;;;;;;;2.15;0.73;;;6.60;99.90;;;;;;5009315;28;20231;-65
2021/09/14 05:46:12;;;;;;;6.25;1.08;;;6.70;99.90;;;;;;5009756;28;20064;-65
2021/09/14 05:48:37;;;;;;;4.40;0.52;;;6.70;99.90;;;;;;4995561;28;20474;-65
2021/09/14 05:51:03;;;;;;;4.10;0.60;;;6.70;99.90;;;;;;4989797;28;20030;-67
2021/09/14 05:53:29;;;;;;;3.60;0.60;;;6.90;99.90;;;;;;4989860;28;20026;-67
2021/09/14 05:55:54;;;;;;;1.10;0.50;;;6.90;99.90;;;;;;4989434;28;20062;-65
2021/09/14 05:58:20;;;;;;;1.15;0.60;;;7.00;99.90;;;;;;4989962;28;20033;-66
2021/09/14 06:00:46;;;;;;;3.50;0.60;;;7.10;99.90;;;;;;4989573;28;20052;-67
2021/09/14 06:03:12;;;;;;;1.85;0.50;;;7.20;99.90;;;;;;4989464;28;20019;-67
2021/09/14 06:05:37;;;;;;;2.55;0.73;;;7.50;99.90;;;;;;4989389;28;20033;-67
2021/09/14 06:08:03;;;;;;;1.52;0.60;;;7.70;99.90;;;;;;4989634;28;20023;-65
2021/09/14 06:10:29;;;;;;;2.10;0.90;;;7.90;99.90;;;;;;4989611;28;20027;-68
2021/09/14 06:12:55;;;;;;;0.90;0.40;;;9.20;99.90;;;;;;4989329;28;20484;-66
2021/09/14 06:15:21;;;;;;;2.60;0.80;;;9.80;99.90;;;;;;4989647;28;20049;-66
2021/09/14 06:17:47;;;;;;;2.25;0.68;;;9.80;98.30;;;;;;4989184;28;20458;-66
2021/09/14 06:20:13;;;;;;;1.58;0.60;;;9.70;96.70;;;;;;4988014;28;20035;-66
2021/09/14 06:22:38;;;;;;;1.33;0.60;;;9.50;96.10;;;;;;4989201;28;20042;-66
2021/09/14 06:25:05;;;;;;;1.75;0.68;;;9.30;95.80;;;;;;4989417;28;20113;-66
2021/09/14 06:27:31;;;;;;;1.48;0.63;;;9.10;95.60;;;;;;4989723;28;20394;-66
2021/09/14 06:29:56;;;;;;;0.98;0.55;;;9.00;95.90;;;;;;4989290;28;20019;-66
2021/09/14 06:32:22;;;;;;;1.52;0.47;;;8.90;96.10;;;;;;4989393;28;20064;-66
2021/09/14 06:34:48;;;;;;;1.10;0.40;;;8.90;96.10;;;;;;4989162;28;20025;-66
2021/09/14 06:37:14;;;;;;;0.50;0.40;;;8.80;96.30;;;;;;4989604;28;20031;-66
2021/09/14 06:39:40;;;;;;;6.82;0.60;;;8.70;96.30;;;;;;4989165;28;20117;-66
2021/09/14 06:42:06;;;;;;;2.53;0.50;;;8.70;96.40;;;;;;4989364;28;20115;-70
2021/09/14 06:44:32;;;;;;;1.27;0.50;;;8.50;96.00;;;;;;4992333;28;20027;-67
2021/09/14 06:46:58;;;;;;;1.63;0.40;;;8.60;96.50;;;;;;4992356;28;20035;-67
2021/09/14 06:49:26;;;;;;;1.92;0.50;;;8.50;96.50;;;;;;4992670;28;20030;-67
2021/09/14 06:51:52;;;;;;;0.43;0.43;;;8.50;96.40;;;;;;4992335;28;20033;-67
2021/09/14 06:54:18;;;;;;;1.77;0.60;;;8.50;96.70;;;;;;4992522;28;20050;-67
2021/09/14 06:56:43;;;;;;;1.52;0.60;;;8.50;97.10;;;;;;4992305;28;20114;-67
2021/09/14 06:59:09;;;;;;;0.30;0.30;;;8.60;97.20;;;;;;4992421;28;20038;-67
2021/09/14 07:01:35;;;;;;;2.42;0.40;;;8.50;96.90;;;;;;4992318;28;20030;-67
2021/09/14 07:04:00;;;;;;;0.40;0.40;;;8.50;97.00;;;;;;4992254;28;20065;-67
2021/09/14 07:06:26;;;;;;;0.35;0.35;;;8.60;97.20;;;;;;4992682;28;20018;-67
2021/09/14 07:08:52;;;;;;;1.08;0.50;;;8.60;97.30;;;;;;4991086;28;20023;-67
2021/09/14 07:11:17;;;;;;;0.60;0.40;;;8.60;97.20;;;;;;4992169;28;20039;-67
2021/09/14 07:13:43;;;;;;;6.05;0.50;;;8.60;97.30;;;;;;4992330;28;20022;-67
2021/09/14 07:16:09;;;;;;;0.82;0.40;;;8.70;97.50;;;;;;4992188;28;20379;-67
2021/09/14 07:18:38;;;;;;;1.20;0.40;;;8.80;97.40;;;;;;4991978;28;20042;-67
2021/09/14 07:21:04;;;;;;;0.63;0.50;;;8.80;97.40;;;;;;4992002;28;20101;-67
2021/09/14 07:23:30;;;;;;;0.75;0.57;;;8.80;97.20;;;;;;4992031;28;20038;-67
2021/09/14 07:26:00;;;;;;;1.40;0.60;;;8.90;97.40;;;;;;4991885;28;20019;-67
2021/09/14 07:28:25;;;;;;;0.45;0.45;;;9.00;97.60;;;;;;4996895;28;20034;-67
2021/09/14 07:30:51;;;;;;;3.53;0.50;;;9.00;97.30;;;;;;4995208;28;20030;-67
2021/09/14 07:33:18;;;;;;;2.85;0.47;;;9.10;97.10;;;;;;5000699;28;20377;-67
2021/09/14 07:35:44;;;;;;;0.90;0.50;;;9.10;97.40;;;;;;4999219;28;20034;-67
2021/09/14 07:38:11;;;;;;;0.57;0.50;;;9.20;96.70;;;;;;4998734;28;20019;-67
2021/09/14 07:40:38;;;;;;;3.63;0.43;;;9.20;96.80;;;;;;5003717;28;20026;-67
2021/09/14 07:43:04;;;;;;;0.40;0.40;;;9.20;96.60;;;;;;4991722;28;20091;-67
2021/09/14 07:45:31;;;;;;;4.90;0.60;;;9.20;96.60;;;;;;4991682;28;20034;-67
2021/09/14 07:47:57;;;;;;;0.60;0.52;;;9.30;97.00;;;;;;4991559;28;20018;-67
2021/09/14 07:50:23;;;;;;;0.60;0.40;;;9.40;97.30;;;;;;4991598;28;20022;-67
2021/09/14 07:52:50;;;;;;;0.82;0.50;;;9.40;96.80;;;;;;4991806;28;20110;-68
2021/09/14 07:55:16;;;;;;;0.77;0.35;;;9.50;96.40;;;;;;4998647;28;20046;-67
2021/09/14 07:57:41;;;;;;;2.20;0.40;;;9.50;96.10;;;;;;5005157;28;20095;-67
2021/09/14 08:00:08;;;;;;;0.82;0.50;;;9.50;96.10;;;;;;4991446;28;20421;-67
2021/09/14 08:02:34;;;;;;;0.60;0.50;;;9.40;96.20;;;;;;4991386;28;20034;-67
2021/09/14 08:04:59;;;;;;;2.53;0.70;;;9.40;96.20;;;;;;5003197;28;20036;-67
2021/09/14 08:07:25;;;;;;;0.68;0.68;;;9.40;96.10;;;;;;5011092;28;20085;-67
2021/09/14 08:09:51;;;;;;;0.85;0.40;;;9.50;96.40;;;;;;5011018;28;20022;-67
2021/09/14 08:12:16;;;;;;;1.23;0.50;;;9.60;96.90;;;;;;5011169;28;20026;-67
2021/09/14 08:14:42;;;;;;;1.85;0.57;;;9.70;96.40;;;;;;5010918;28;20531;-67
2021/09/14 08:17:08;;;;;;;0.40;0.40;;;9.80;96.30;;;;;;5010790;28;20030;-67
2021/09/14 08:19:34;;;;;;;0.65;0.50;;;9.90;96.00;;;;;;5010877;28;20030;-67
2021/09/14 08:21:59;;;;;;;1.05;0.40;;;9.90;95.80;;;;;;5010571;28;20068;-67
2021/09/14 08:24:25;;;;;;;0.40;0.30;;;9.90;95.30;;;;;;5010748;28;20159;-67
2021/09/14 08:26:51;;;;;;;0.55;0.40;;;9.90;94.80;;;;;;5010588;28;20073;-68
2021/09/14 08:29:17;;;;;;;0.77;0.40;;;9.90;94.70;;;;;;5010638;28;20053;-67
2021/09/14 08:31:43;;;;;;;0.80;0.40;;;9.90;95.30;;;;;;5010161;28;20030;-67
2021/09/14 08:34:09;;;;;;;0.65;0.40;;;10.00;95.80;;;;;;5010563;28;20026;-67
2021/09/14 08:36:36;;;;;;;0.95;0.50;;;10.00;95.60;;;;;;5010468;28;20103;-67
2021/09/14 08:39:02;;;;;;;0.40;0.40;;;10.20;97.70;;;;;;5010299;28;20675;-67
2021/09/14 08:41:28;;;;;;;0.30;0.30;;;10.40;96.30;;;;;;5010423;28;20438;-67
2021/09/14 08:43:54;;;;;;;0.70;0.40;;;10.40;94.40;;;;;;5009002;28;20030;-67
2021/09/14 08:46:22;;;;;;;1.15;0.40;;;10.30;93.90;;;;;;5010328;28;20022;-67
2021/09/14 08:48:50;;;;;;;0.47;0.30;;;10.20;93.90;;;;;;5010120;28;20018;-67
2021/09/14 08:51:16;;;;;;;1.10;0.60;;;10.10;94.00;;;;;;5010229;28;20484;-66
2021/09/14 08:53:42;;;;;;;0.47;0.40;;;10.20;94.60;;;;;;5010361;28;20413;-66
2021/09/14 08:56:09;;;;;;;1.35;0.40;;;10.20;94.20;;;;;;5010182;28;20033;-66
2021/09/14 08:58:36;;;;;;;0.70;0.38;;;10.10;94.30;;;;;;5010226;28;20036;-66
2021/09/14 09:01:10;;;;;;;1.38;0.52;;;10.10;94.40;;;;;;5010216;28;20054;-66
2021/09/14 09:03:37;;;;;;;0.57;0.50;;;10.10;94.40;;;;;;5010173;28;20101;-67
2021/09/14 09:06:03;;;;;;;0.47;0.40;;;10.00;94.10;;;;;;5009092;28;20049;-68
2021/09/14 09:08:30;;;;;;;0.40;0.40;;;10.00;93.80;;;;;;5009981;28;20032;-68
2021/09/14 09:10:59;;;;;;;3.88;0.40;;;10.10;93.60;;;;;;5007810;28;20030;-69
2021/09/14 09:13:30;;;;;;;0.40;0.30;;;10.20;93.90;;;;;;4990452;28;20030;-68
2021/09/14 09:15:56;;;;;;;0.52;0.40;;;10.30;93.50;;;;;;4989221;28;20026;-68
2021/09/14 09:18:21;;;;;;;0.40;0.40;;;10.40;93.40;;;;;;4990346;28;20034;-68
2021/09/14 09:20:49;;;;;;;1.10;0.30;;;10.50;93.80;;;;;;4990151;28;20030;-68
2021/09/14 09:23:24;;;;;;;0.40;0.40;;;10.60;93.40;;;;;;4990218;28;20027;-68
2021/09/14 09:25:50;;;;;;;0.80;0.40;;;10.60;93.30;;;;;;4990374;28;20038;-68
2021/09/14 09:28:23;;;;;;;0.90;0.50;;;10.60;93.10;;;;;;4990684;28;20019;-68
2021/09/14 09:30:57;;;;;;;0.47;0.40;;;10.60;93.40;;;;;;4990422;28;20474;-68
2021/09/14 09:33:27;;;;;;;1.85;0.75;;;10.70;92.90;;;;;;4990269;28;20071;-68
2021/09/14 09:36:08;;;;;;;6.25;0.60;;;10.70;93.20;;;;;;4990073;28;20023;-68
2021/09/14 09:38:47;;;;;;;;;;;10.80;93.30;;;;;;4990518;28;20030;-68
2021/09/14 09:41:17;;;;;;;1.95;0.50;;;10.70;92.30;;;;;;4990039;28;19945;-68
2021/09/14 09:43:44;;;;;;;0.40;0.40;;;10.80;93.00;;;;;;4990194;28;20034;-68
2021/09/14 09:46:11;;;;;;;0.40;0.40;;;10.80;92.40;;;;;;4989823;28;20490;-72
2021/09/14 09:48:38;;;;;;;2.83;0.40;;;10.80;93.00;;;;;;4989805;28;20113;-66
2021/09/14 09:51:04;;;;;;;0.55;0.40;;;11.40;99.40;;;;;;4989710;28;20049;-67
2021/09/14 09:53:34;;;;;;;0.40;0.38;;;11.60;93.10;;;;;;4989774;28;20114;-67
2021/09/14 09:56:02;;;;;;;0.30;0.20;;;11.50;90.90;;;;;;4989395;28;20051;-67
2021/09/14 09:58:28;;;;;;;0.77;0.50;;;11.30;90.40;;;;;;4989649;28;20078;-67
2021/09/14 10:01:02;;;;;;;0.45;0.30;;;11.20;90.10;;;;;;4988200;28;20051;-67
2021/09/14 10:03:31;;;;;;;0.95;0.40;;;11.10;90.60;;;;;;4989890;28;20018;-67
2021/09/14 10:06:01;;;;;;;0.40;0.30;;;11.10;90.70;;;;;;4988166;28;20058;-67
2021/09/14 10:08:28;;;;;;;0.63;0.32;;;11.10;91.30;;;;;;4989720;28;20038;-67
2021/09/14 10:10:58;;;;;;;0.30;0.30;;;11.10;91.20;;;;;;4989474;28;20414;-67
2021/09/14 10:13:39;;;;;;;0.93;0.35;;;11.10;91.20;;;;;;4989614;28;20023;-67
2021/09/14 10:16:05;;;;;;;0.30;0.30;;;11.10;91.20;;;;;;4989679;28;20038;-67
2021/09/14 10:18:34;;;;;;;0.25;0.25;;;11.10;90.60;;;;;;4992884;28;20061;-67
2021/09/14 10:21:04;;;;;;;0.40;0.40;;;11.10;90.70;;;;;;4993203;28;20034;-67
2021/09/14 10:23:34;;;;;;;0.20;0.20;;;11.10;90.40;;;;;;4993098;28;20030;-67
2021/09/14 10:26:11;;;;;;;0.30;0.30;;;11.10;90.10;;;;;;4992869;28;20607;-67
2021/09/14 10:28:43;;;;;;;2.17;0.40;;;11.10;90.30;;;;;;4993001;28;20041;-67
2021/09/14 10:31:30;;;;;;;0.30;0.30;;;11.10;90.10;;;;;;4992762;28;20030;-67
2021/09/14 10:34:04;;;;;;;0.20;0.20;;;11.10;90.30;;;;;;4992717;28;20087;-67
2021/09/14 10:36:31;;;;;;;0.70;0.40;;;11.10;90.40;;;;;;4993083;28;20030;-65
2021/09/14 10:38:57;;;;;;;0.20;0.20;;;11.10;90.60;;;;;;4992547;28;20037;-67
2021/09/14 10:41:33;;;;;;;0.20;0.20;;;11.10;90.30;;;;;;4993003;28;20027;-67
2021/09/14 10:44:00;;;;;;;0.30;0.30;;;11.10;90.50;;;;;;4992659;28;20026;-67
2021/09/14 10:46:26;;;;;;;0.30;0.30;;;11.20;90.20;;;;;;4992680;28;20489;-67
2021/09/14 10:48:52;;;;;;;0.20;0.20;;;11.20;90.50;;;;;;4992591;28;20037;-67
2021/09/14 10:51:19;;;;;;;0.40;0.30;;;11.10;90.40;;;;;;4991270;28;20026;-67
2021/09/14 10:53:55;;;;;;;0.30;0.30;;;11.10;90.50;;;;;;4992549;28;20032;-67
2021/09/14 10:56:21;;;;;;;0.20;0.20;;;11.10;90.70;;;;;;4992583;28;20509;-67
2021/09/14 10:58:47;;;;;;;1.55;0.35;;;11.20;90.80;;;;;;4992572;28;20485;-65
2021/09/14 11:01:21;;;;;;;1.58;0.50;;;11.30;90.10;;;;;;4992407;28;20030;-65
2021/09/14 11:04:04;;;;;;;1.85;0.38;;;11.20;89.10;;;;;;4992855;28;20030;-65
2021/09/14 11:06:30;;;;;;;0.25;0.25;;;11.20;89.90;;;;;;4992442;28;20474;-65
2021/09/14 11:08:57;;;;;;;0.30;0.30;;;11.10;90.50;;;;;;4992570;28;20110;-67
2021/09/14 11:11:23;;;;;;;0.20;0.20;;;11.10;90.20;;;;;;4992279;28;20026;-67
2021/09/14 11:13:49;;;;;;;0.22;0.22;;;11.10;90.20;;;;;;4992284;28;20027;-67
2021/09/14 11:16:16;;;;;;;0.30;0.30;;;11.10;90.60;;;;;;4992431;28;20034;-66
2021/09/14 11:18:43;;;;;;;0.20;0.20;;;11.10;90.00;;;;;;4992346;28;20038;-66
2021/09/14 11:21:11;;;;;;;0.30;0.30;;;11.10;88.50;;;;;;4992240;28;20060;-66
2021/09/14 11:23:40;;;;;;;0.30;0.30;;;11.10;88.20;;;;;;4992376;28;20027;-66
2021/09/14 11:26:11;;;;;;;1.23;0.50;;;11.20;88.40;;;;;;4992223;28;20069;-65
2021/09/14 11:28:38;;;;;;;0.30;0.30;;;11.20;88.50;;;;;;4991147;28;20052;-66
2021/09/14 11:31:08;;;;;;;0.20;0.20;;;11.20;87.60;;;;;;4991861;28;20109;-66
2021/09/14 11:33:35;;;;;;;0.30;0.30;;;11.20;88.30;;;;;;4992340;28;20094;-65
2021/09/14 11:36:08;;;;;;;0.70;0.30;;;11.20;88.60;;;;;;4991794;28;20079;-65
2021/09/14 11:38:34;;;;;;;2.15;0.40;;;11.20;90.50;;;;;;4991833;28;20371;-65
2021/09/14 11:41:02;;;;;;;1.27;0.30;;;11.10;92.10;;;;;;4991386;28;20037;-65
2021/09/14 11:43:34;;;;;;;0.95;0.40;;;10.90;93.30;;;;;;4990347;28;20495;-65
2021/09/14 11:46:15;;;;;;;0.30;0.30;;;10.70;94.50;;;;;;4991301;28;20038;-65
2021/09/14 11:48:41;;;;;;;0.57;0.43;;;10.80;96.30;;;;;;4991577;28;20037;-66
2021/09/14 11:51:12;;;;;;;0.30;0.30;;;10.80;95.70;;;;;;4991657;28;20084;-65
2021/09/14 11:53:45;;;;;;;0.32;0.32;;;10.80;95.00;;;;;;4991861;28;20034;-65
2021/09/14 11:56:16;;;;;;;0.30;0.30;;;10.80;95.60;;;;;;4990382;28;20125;-65
2021/09/14 11:58:44;;;;;;;0.30;0.30;;;10.90;96.00;;;;;;4991624;28;20109;-66
2021/09/14 12:01:11;;;;;;;0.22;0.20;;;11.00;95.00;;;;;;4991358;28;20030;-66
2021/09/14 12:03:51;;;;;;;0.45;0.30;;;11.00;94.60;;;;;;4991874;28;20050;-65
2021/09/14 12:06:31;;;;;;;0.30;0.30;;;11.10;94.40;;;;;;4991338;28;20468;-66
2021/09/14 12:08:58;;;;;;;0.30;0.30;;;11.10;94.00;;;;;;4991463;28;20113;-66
2021/09/14 12:11:29;;;;;;;0.80;0.20;;;11.20;93.20;;;;;;4991519;28;20023;-66
2021/09/14 12:14:00;;;;;;;0.38;0.30;;;11.30;92.50;;;;;;4991392;28;20054;-66
2021/09/14 12:16:28;;;;;;;0.30;0.30;;;11.40;91.50;;;;;;4991536;28;20023;-66
2021/09/14 12:18:57;;;;;;;1.55;0.20;;;11.30;91.20;;;;;;4991535;28;20056;-66
2021/09/14 12:21:24;;;;;;;0.30;0.30;;;11.30;90.90;;;;;;4991210;28;20129;-66
2021/09/14 12:23:50;;;;;;;0.30;0.30;;;11.30;91.30;;;;;;4991318;28;20027;-66
2021/09/14 12:26:27;;;;;;;0.30;0.20;;;11.30;90.60;;;;;;4991398;28;20032;-65
2021/09/14 12:28:55;;;;;;;0.20;0.20;;;11.30;90.20;;;;;;4991189;28;20031;-65
2021/09/14 12:31:21;;;;;;;8.98;0.63;;;11.20;89.90;;;;;;4990993;28;20510;-65
2021/09/14 12:33:47;;;;;;;1.20;0.28;;;11.20;90.20;;;;;;4991085;28;20037;-66
2021/09/14 12:36:14;;;;;;;4.68;0.43;;;11.10;90.30;;;;;;5000455;28;20026;-66
2021/09/14 12:38:40;;;;;;;0.40;0.30;;;11.10;90.60;;;;;;5000603;28;20080;-67
2021/09/14 12:41:06;;;;;;;0.20;0.20;;;11.10;91.00;;;;;;4999023;28;20481;-67
2021/09/14 12:43:32;;;;;;;2.63;0.30;;;11.00;91.60;;;;;;5001284;28;20074;-66
2021/09/14 12:45:59;;;;;;;1.85;0.22;;;11.00;91.80;;;;;;5000353;28;20477;-67
2021/09/14 12:48:24;;;;;;;0.20;0.20;;;11.00;92.20;;;;;;4999447;28;20022;-67
2021/09/14 12:50:51;;;;;;;0.20;0.20;;;10.90;92.40;;;;;;5001372;28;20022;-67
2021/09/14 12:53:16;;;;;;;1.80;0.28;;;10.90;92.30;;;;;;5000215;28;20030;-67
2021/09/14 12:55:42;;;;;;;0.85;0.20;;;10.90;92.40;;;;;;4993733;28;20087;-67
2021/09/14 12:58:08;;;;;;;3.40;0.20;;;10.90;92.60;;;;;;4989516;28;20110;-67
2021/09/14 13:00:35;;;;;;;0.10;0.10;;;10.80;92.70;;;;;;5005224;28;20037;-67
2021/09/14 13:03:02;;;;;;;0.20;0.20;;;10.80;93.00;;;;;;5007230;28;20532;-67
2021/09/14 13:05:30;;;;;;;0.22;0.22;;;10.80;93.00;;;;;;5007433;28;20027;-67
2021/09/14 13:07:56;;;;;;;0.20;0.20;;;10.80;93.00;;;;;;4992414;28;20030;-67
2021/09/14 13:10:22;;;;;;;0.20;0.20;;;10.80;92.50;;;;;;5003544;28;20078;-67
2021/09/14 13:12:51;;;;;;;0.30;0.30;;;10.80;92.40;;;;;;5004337;28;20061;-67
2021/09/14 13:18:02;;;;;;;0.20;0.20;;;10.80;91.90;;;;;;4995447;28;20026;-67
2021/09/14 13:20:28;;;;;;;0.75;0.20;;;10.80;91.60;;;;;;5002552;28;20486;-67
2021/09/14 13:22:55;;;;;;;0.20;0.20;;;10.80;91.70;;;;;;4995217;28;20113;-68
2021/09/14 13:25:24;;;;;;;0.20;0.20;;;10.80;91.50;;;;;;4999342;28;20030;-67
2021/09/14 13:27:49;;;;;;;0.20;0.20;;;10.80;91.70;;;;;;4998540;28;20026;-67
2021/09/14 13:30:15;;;;;;;0.20;0.20;;;10.70;91.50;;;;;;4998689;28;20026;-67
2021/09/14 13:32:44;;;;;;;0.20;0.20;;;10.70;91.80;;;;;;4999021;28;20113;-67
2021/09/14 13:35:10;;;;;;;0.20;0.20;;;10.70;91.90;;;;;;5000370;28;20505;-67
2021/09/14 13:37:35;;;;;;;0.30;0.30;;;10.70;92.10;;;;;;4999257;28;20054;-67
2021/09/14 13:40:01;;;;;;;0.20;0.20;;;10.70;91.90;;;;;;4997078;28;20168;-67
2021/09/14 13:42:28;;;;;;;0.20;0.20;;;10.60;91.30;;;;;;4998315;28;20072;-67
2021/09/14 13:47:20;;;;;;;0.75;0.40;;;10.50;90.90;;;;;;4999453;28;20484;-66
2021/09/14 13:49:50;;;;;;;0.60;0.50;;;10.50;91.10;;;;;;4998657;28;20018;-68
2021/09/14 13:52:17;;;;;;;0.30;0.30;;;10.60;90.60;;;;;;4998054;28;20508;-68
2021/09/14 13:54:42;;;;;;;2.08;0.38;;;10.70;90.80;;;;;;4990907;28;20763;-67
2021/09/14 13:57:08;;;;;;;0.30;0.30;;;10.80;90.80;;;;;;4997377;28;20026;-68
2021/09/14 13:59:34;;;;;;;0.47;0.47;;;10.80;91.00;;;;;;4998670;28;20045;-68
2021/09/14 14:02:01;;;;;;;0.40;0.30;;;10.80;90.80;;;;;;4998821;28;20038;-67
2021/09/14 14:04:27;;;;;;;0.20;0.20;;;10.80;90.40;;;;;;5000126;28;20022;-68
2021/09/14 14:06:53;;;;;;;4.72;0.30;;;10.80;90.30;;;;;;4992756;28;20095;-67
2021/09/14 14:09:19;;;;;;;0.35;0.35;;;10.80;90.50;;;;;;4993803;28;20029;-67
2021/09/14 14:11:45;;;;;;;0.20;0.20;;;10.80;90.10;;;;;;4996552;28;20083;-67
2021/09/14 14:14:11;;;;;;;0.20;0.20;;;10.80;90.30;;;;;;4994901;28;20026;-68
2021/09/14 14:16:39;;;;;;;2.60;0.32;;;10.70;90.50;;;;;;4993814;28;20025;-73
2021/09/14 14:19:06;;;;;;;0.63;0.20;;;11.10;99.00;;;;;;4994834;28;20043;-67
2021/09/14 14:21:31;;;;;;;0.30;0.30;;;12.20;98.80;;;;;;4998071;28;20026;-67
2021/09/14 14:23:57;;;;;;;0.90;0.30;;;12.20;92.00;;;;;;4998963;28;20029;-67